Relevés horaires Schaffen (Belgique)


Relevés horaires à Schaffen - Mardi 24 Mars 2020
Heure UTC1 Température [°C] Vent [km/h] Hum. [%] Pres.4 [hPa] Visi. [Km] Nébu. [octa] Préc.5 [mm] Cond.
2m. Res. Ros. Dir.2 Vit. Moy. Raf.3
23:00 4.6 4.6 -9.8 E 3.7 -- 5.6 34 1028.5(-0.1/3h) 20 -- -- --
22:00 4.5 4.5 -8.8 ESE 3.7 -- 7.4 37 1028.7(0.2/3h) 20 -- -- --
21:00 5.4 4.3 -9.0 ESE 5.6 -- 14.8 34 1028.9(0.6/3h) 20 -- -- --
20:00 6.6 5.2 -9.2 ESE 7.4 -- 14.8 31 1028.7(0.7/3h) 20 -- -- --
19:00 7.5 6.2 -9.1 E 7.4 -- 13.0 30 1028.5(0.4/3h) 20 -- -- --
18:00 8.7 7.6 -8.5 E 7.4 -- 16.7 29 1028(0.0/3h) 20 -- -- --
17:00 11.0 10.7 -9.6 E 5.6 -- 13.0 22 1027.7(-0.9/3h) 20 -- -- --
16:00 11.8 11.6 -9.2 E 5.6 -- 14.8 22 1027.9(-1.6/3h) 20 -- -- --
15:00 11.8 10.9 -10.1 ESE 9.3 -- 16.7 20 1028(-2.1/3h) 20 -- -- --
14:00 11.5 10.9 -8.7 ESE 7.4 -- 14.8 23 1028.7(-2.1/3h) 20 -- -- --
13:00 11.2 10.5 -8.4 SE 7.4 -- 16.7 24 1029.5(-1.5/3h) 20 -- -- --
12:00 10.0 8.5 -9.0 SE 11.1 -- 14.8 25 1030.2(-1.0/3h) 20 -- -- --
11:00 8.5 7 -9.9 SE 9.3 -- 13.0 26 1030.9(-0.3/3h) 20 -- -- --
10:00 7.8 6.6 -7.9 SE 7.4 -- 13.0 32 1031.2(-0.1/3h) 20 -- -- --
09:00 6.5 5.6 -7.6 E 5.6 -- 14.8 36 1031.4(0.3/3h) 20 -- -- --
08:00 4.3 4.3 -7.2 ESE 3.7 -- 7.4 43 1031.2(0.9/3h) 18 -- -- --
07:00 0.6 0.6 -7.9 NNO 1.9 -- 5.6 53 1031.5(0.9/3h) 20 -- -- --
06:00 -0.7 -0.7 -8.7 ENE 3.7 -- 11.1 55 1031.2(0.0/3h) 20 -- -- --
05:00 -0.5 -0.5 -8.4 SE 3.7 -- 7.4 55 1030.5(-0.2/3h) 20 -- -- --
04:00 -0.4 -0.4 -8.8 SE 3.7 -- 5.6 53 1030.5(-0.1/3h) 20 -- -- --
03:00 1.1 1.1 -10.0 NNO 3.7 -- 11.1 43 1031(0.5/3h) 20 -- -- --
02:00 1.5 1.5 -9.5 ESE 3.7 -- 9.3 44 1030.7(0.1/3h) 20 -- -- --
01:00 2.3 0.8 -9.5 ESE 5.6 -- 11.1 41 1030.7(-0.2/3h) 20 -- -- --
00:00 2.8 0.7 -9.6 ESE 7.4 -- 14.8 39 1030.4(-0.3/3h) 20 -- -- --

1 Coordinated Universal Time. Actuellement il est 09:00 locale et 08:00 UTC.

2 Le vent souffle depuis la direction indiquée vers la direction oposée.

3 Les rafales max. sont disponible 40 min après l'heure du relevé.

4 Pour les stations d'altitude (plus de 600m) le géopotentiel du niveau le plus proche de la pression obligatoire est indiqué.

5 Les stations disposant d'un diffuseur peuvent indiquer "trace". Cela signifie que des précipitations ont touchés le sol mais que la quantité est inférieure à 0.1 mm.

Récapitulatif de la journée
Température [°C] Vent [km/h] Ensoleillement4 [h] Precipitations totale5 [mm] Pression [Hpa]
Min1 Max.2 Moy.3 Max. Min Max.
-1.1 12.2 0 16.7 0 h 0 min 0 1027.7 1031.5

1 Température minimale relevée entre 18:00 UTC la veille et 18:00 UTC le jour donné.

2 Température maximale relevée entre 06:00 UTC le jour donné et 06:00 UTC le lendemain.

3 Vent moyen de la journée basé sur les relevés horaires.

4 Ensoleillement en heures relevé entre 06:00 UTC la veille et 06:00 UTC le jour donné.

5 Précipitations totales tombées entre 06:00 UTC la jour donné et 06:00 UTC le lendemain.

Graphiques horaires